Main page
METAR-TAF:

METAR-TAF

Airports :

Oxford Airport

Oxford, England

latitude: 51-50-13N, longitude: 1-19-12W, elevation: 82 m

Current weather observation

The report was made 33 minutes ago, at 16:20 UTC
Wind 3 kt from variable directions
Temperature 12°C
Humidity 94%
Pressure 1009 hPa
Visibility: 8000 m
Overcast at a height of 4900 ft

METAR: EGTK 231620Z VRB03KT 8000 OVC049 12/11 Q1009

Time: 17:53 (16:53 UTC)

Forecast

The report was made 1 hour and 52 minutes ago, at 15:01 UTC
Forecast valid from 23 at 15 UTC to 23 at 22 UTC
Wind 3 kt from variable directions
Visibility 10 km or more
Few clouds at a height of 3000 ft
Temporary
from 23 at 15 UTC to 23 at 18 UTC
Visibility: 8000 m
Broken clouds at a height of 1400 ft
light rain
Becoming
from 23 at 18 UTC to 23 at 21 UTC
Visibility: 8000 m
Broken clouds at a height of 800 ft
light rain, drizzle

TAF: EGTK 231501Z 2315/2322 VRB03KT 9999 FEW030 TEMPO 2315/2318 8000 -RA BKN014 BECMG 2318/2321 8000 -RADZ BKN008

Weather observations and forecasts of more than 4000 airports (METAR and TAF reports).

The available stations are represented by yellow and red dots on the map.

Hover mouse over dot to see the name of the station.

Then click to see weather observations and forecasts.

To change the map : click on the green buttons with a black cross to zoom in, on the green button with a dash to zoom out, or on the green arrows for adjacent maps.


METAR-TAF: